sensor_id;sensor_type;location;lat;lon;timestamp;P1;durP1;ratioP1;P2;durP2;ratioP2
22435;SDS011;11385;50.822;4.324;2023-03-24T00:02:01;6.58;;;2.50;;
22435;SDS011;11385;50.822;4.324;2023-03-24T00:04:29;6.87;;;2.90;;
22435;SDS011;11385;50.822;4.324;2023-03-24T00:06:56;6.72;;;2.65;;
22435;SDS011;11385;50.822;4.324;2023-03-24T00:09:22;4.80;;;2.40;;
22435;SDS011;11385;50.822;4.324;2023-03-24T00:11:49;7.20;;;2.65;;
22435;SDS011;11385;50.822;4.324;2023-03-24T00:14:16;4.95;;;2.33;;
22435;SDS011;11385;50.822;4.324;2023-03-24T00:16:43;6.67;;;2.50;;
22435;SDS011;11385;50.822;4.324;2023-03-24T00:19:11;5.37;;;2.20;;
22435;SDS011;11385;50.822;4.324;2023-03-24T00:21:39;4.87;;;2.40;;
22435;SDS011;11385;50.822;4.324;2023-03-24T00:24:06;6.97;;;2.40;;
22435;SDS011;11385;50.822;4.324;2023-03-24T00:26:35;4.58;;;2.20;;
22435;SDS011;11385;50.822;4.324;2023-03-24T00:29:04;7.03;;;2.62;;
22435;SDS011;11385;50.822;4.324;2023-03-24T00:31:34;3.87;;;2.27;;
22435;SDS011;11385;50.822;4.324;2023-03-24T00:34:04;5.65;;;2.60;;
22435;SDS011;11385;50.822;4.324;2023-03-24T00:36:34;3.83;;;2.13;;
22435;SDS011;11385;50.822;4.324;2023-03-24T00:39:03;4.42;;;2.10;;
22435;SDS011;11385;50.822;4.324;2023-03-24T00:41:30;5.28;;;2.50;;
22435;SDS011;11385;50.822;4.324;2023-03-24T00:43:57;4.50;;;2.30;;
22435;SDS011;11385;50.822;4.324;2023-03-24T00:46:27;6.15;;;2.52;;
22435;SDS011;11385;50.822;4.324;2023-03-24T00:48:57;5.83;;;2.45;;
22435;SDS011;11385;50.822;4.324;2023-03-24T00:51:28;7.25;;;4.53;;
22435;SDS011;11385;50.822;4.324;2023-03-24T00:53:56;7.30;;;5.62;;
22435;SDS011;11385;50.822;4.324;2023-03-24T00:56:24;10.40;;;6.55;;
22435;SDS011;11385;50.822;4.324;2023-03-24T00:58:53;19.50;;;13.25;;
22435;SDS011;11385;50.822;4.324;2023-03-24T01:01:25;4.25;;;2.20;;
22435;SDS011;11385;50.822;4.324;2023-03-24T01:03:54;3.90;;;2.27;;
22435;SDS011;11385;50.822;4.324;2023-03-24T01:06:21;7.92;;;2.77;;
22435;SDS011;11385;50.822;4.324;2023-03-24T01:08:49;5.40;;;2.42;;
22435;SDS011;11385;50.822;4.324;2023-03-24T01:11:20;5.75;;;1.98;;
22435;SDS011;11385;50.822;4.324;2023-03-24T01:13:49;4.65;;;2.37;;
22435;SDS011;11385;50.822;4.324;2023-03-24T01:16:17;6.90;;;2.40;;
22435;SDS011;11385;50.822;4.324;2023-03-24T01:18:45;5.28;;;2.40;;
22435;SDS011;11385;50.822;4.324;2023-03-24T01:21:14;5.45;;;2.35;;
22435;SDS011;11385;50.822;4.324;2023-03-24T01:23:41;6.62;;;2.77;;
22435;SDS011;11385;50.822;4.324;2023-03-24T01:26:08;6.25;;;2.25;;
22435;SDS011;11385;50.822;4.324;2023-03-24T01:28:36;5.97;;;2.70;;
22435;SDS011;11385;50.822;4.324;2023-03-24T01:31:05;5.28;;;2.42;;
22435;SDS011;11385;50.822;4.324;2023-03-24T01:33:35;4.72;;;2.80;;
22435;SDS011;11385;50.822;4.324;2023-03-24T01:36:03;5.70;;;2.50;;
22435;SDS011;11385;50.822;4.324;2023-03-24T01:38:31;6.42;;;2.50;;
22435;SDS011;11385;50.822;4.324;2023-03-24T01:40:58;5.97;;;2.08;;
22435;SDS011;11385;50.822;4.324;2023-03-24T01:43:27;4.17;;;1.95;;
22435;SDS011;11385;50.822;4.324;2023-03-24T01:46:04;5.35;;;2.58;;
22435;SDS011;11385;50.822;4.324;2023-03-24T01:48:39;4.33;;;2.47;;
22435;SDS011;11385;50.822;4.324;2023-03-24T01:51:11;5.62;;;2.40;;
22435;SDS011;11385;50.822;4.324;2023-03-24T01:53:44;6.20;;;2.98;;
22435;SDS011;11385;50.822;4.324;2023-03-24T01:56:14;5.00;;;2.98;;
22435;SDS011;11385;50.822;4.324;2023-03-24T01:58:42;5.10;;;2.67;;
22435;SDS011;11385;50.822;4.324;2023-03-24T02:01:11;6.62;;;2.58;;
22435;SDS011;11385;50.822;4.324;2023-03-24T02:03:38;3.22;;;2.12;;
22435;SDS011;11385;50.822;4.324;2023-03-24T02:06:06;7.78;;;2.50;;
22435;SDS011;11385;50.822;4.324;2023-03-24T02:08:38;3.35;;;1.77;;
22435;SDS011;11385;50.822;4.324;2023-03-24T02:11:07;4.22;;;2.00;;
22435;SDS011;11385;50.822;4.324;2023-03-24T02:13:34;3.15;;;1.95;;
22435;SDS011;11385;50.822;4.324;2023-03-24T02:16:17;3.77;;;1.77;;
22435;SDS011;11385;50.822;4.324;2023-03-24T02:18:54;3.45;;;1.55;;
22435;SDS011;11385;50.822;4.324;2023-03-24T02:21:30;4.58;;;1.45;;
22435;SDS011;11385;50.822;4.324;2023-03-24T02:24:20;4.67;;;1.07;;
22435;SDS011;11385;50.822;4.324;2023-03-24T02:26:52;2.17;;;1.10;;
22435;SDS011;11385;50.822;4.324;2023-03-24T02:35:29;5.60;;;1.15;;
22435;SDS011;11385;50.822;4.324;2023-03-24T02:38:07;7.08;;;0.85;;
22435;SDS011;11385;50.822;4.324;2023-03-24T02:40:48;3.02;;;1.05;;
22435;SDS011;11385;50.822;4.324;2023-03-24T02:43:18;3.22;;;0.98;;
22435;SDS011;11385;50.822;4.324;2023-03-24T02:45:53;2.52;;;1.00;;
22435;SDS011;11385;50.822;4.324;2023-03-24T02:48:33;6.00;;;0.93;;
22435;SDS011;11385;50.822;4.324;2023-03-24T02:51:04;4.72;;;1.20;;
22435;SDS011;11385;50.822;4.324;2023-03-24T02:53:42;5.08;;;1.22;;
22435;SDS011;11385;50.822;4.324;2023-03-24T02:56:16;3.87;;;1.15;;
22435;SDS011;11385;50.822;4.324;2023-03-24T02:58:47;5.47;;;1.00;;
22435;SDS011;11385;50.822;4.324;2023-03-24T03:01:19;2.55;;;0.78;;
22435;SDS011;11385;50.822;4.324;2023-03-24T03:03:51;4.80;;;0.80;;
22435;SDS011;11385;50.822;4.324;2023-03-24T03:06:26;5.72;;;1.07;;
22435;SDS011;11385;50.822;4.324;2023-03-24T03:08:56;6.60;;;1.30;;
22435;SDS011;11385;50.822;4.324;2023-03-24T03:11:26;4.83;;;1.02;;
22435;SDS011;11385;50.822;4.324;2023-03-24T03:13:58;5.90;;;1.32;;
22435;SDS011;11385;50.822;4.324;2023-03-24T03:16:29;3.83;;;1.30;;
22435;SDS011;11385;50.822;4.324;2023-03-24T03:19:02;4.58;;;0.80;;
22435;SDS011;11385;50.822;4.324;2023-03-24T03:21:35;3.95;;;0.75;;
22435;SDS011;11385;50.822;4.324;2023-03-24T03:24:07;5.62;;;1.05;;
22435;SDS011;11385;50.822;4.324;2023-03-24T03:26:37;7.33;;;1.62;;
22435;SDS011;11385;50.822;4.324;2023-03-24T03:29:08;9.65;;;1.70;;
22435;SDS011;11385;50.822;4.324;2023-03-24T03:31:41;8.90;;;1.52;;
22435;SDS011;11385;50.822;4.324;2023-03-24T03:34:19;6.65;;;1.67;;
22435;SDS011;11385;50.822;4.324;2023-03-24T03:37:05;8.98;;;1.70;;
22435;SDS011;11385;50.822;4.324;2023-03-24T03:39:35;4.50;;;1.20;;
22435;SDS011;11385;50.822;4.324;2023-03-24T03:42:04;9.15;;;1.77;;
22435;SDS011;11385;50.822;4.324;2023-03-24T03:44:32;8.28;;;1.65;;
22435;SDS011;11385;50.822;4.324;2023-03-24T03:46:59;10.20;;;2.72;;
22435;SDS011;11385;50.822;4.324;2023-03-24T03:49:26;9.43;;;1.60;;
22435;SDS011;11385;50.822;4.324;2023-03-24T03:51:53;9.60;;;1.77;;
22435;SDS011;11385;50.822;4.324;2023-03-24T03:54:20;6.05;;;2.00;;
22435;SDS011;11385;50.822;4.324;2023-03-24T03:56:48;10.00;;;2.02;;
22435;SDS011;11385;50.822;4.324;2023-03-24T04:01:49;6.87;;;1.42;;
22435;SDS011;11385;50.822;4.324;2023-03-24T04:04:22;11.97;;;1.90;;
22435;SDS011;11385;50.822;4.324;2023-03-24T04:07:07;9.10;;;2.20;;
22435;SDS011;11385;50.822;4.324;2023-03-24T04:10:54;10.03;;;1.55;;
22435;SDS011;11385;50.822;4.324;2023-03-24T04:12:39;9.58;;;2.20;;
22435;SDS011;11385;50.822;4.324;2023-03-24T04:15:09;8.25;;;1.62;;
22435;SDS011;11385;50.822;4.324;2023-03-24T04:20:29;7.50;;;2.20;;
22435;SDS011;11385;50.822;4.324;2023-03-24T04:28:41;8.28;;;2.00;;
22435;SDS011;11385;50.822;4.324;2023-03-24T04:31:15;9.10;;;2.22;;
22435;SDS011;11385;50.822;4.324;2023-03-24T04:33:50;12.85;;;2.37;;
22435;SDS011;11385;50.822;4.324;2023-03-24T04:36:26;10.95;;;1.87;;
22435;SDS011;11385;50.822;4.324;2023-03-24T04:38:56;19.32;;;2.60;;
22435;SDS011;11385;50.822;4.324;2023-03-24T04:41:27;11.18;;;2.42;;
22435;SDS011;11385;50.822;4.324;2023-03-24T04:43:56;12.63;;;2.10;;
22435;SDS011;11385;50.822;4.324;2023-03-24T04:46:24;11.53;;;2.70;;
22435;SDS011;11385;50.822;4.324;2023-03-24T04:48:51;14.83;;;3.08;;
22435;SDS011;11385;50.822;4.324;2023-03-24T04:51:18;13.18;;;3.05;;
22435;SDS011;11385;50.822;4.324;2023-03-24T04:53:45;15.68;;;3.30;;
22435;SDS011;11385;50.822;4.324;2023-03-24T04:56:29;15.48;;;3.05;;
22435;SDS011;11385;50.822;4.324;2023-03-24T04:59:13;14.68;;;3.12;;
22435;SDS011;11385;50.822;4.324;2023-03-24T05:01:40;11.38;;;2.95;;
22435;SDS011;11385;50.822;4.324;2023-03-24T05:04:09;12.55;;;2.90;;
22435;SDS011;11385;50.822;4.324;2023-03-24T05:06:36;11.15;;;2.52;;
22435;SDS011;11385;50.822;4.324;2023-03-24T05:09:03;10.90;;;2.90;;
22435;SDS011;11385;50.822;4.324;2023-03-24T05:11:30;12.20;;;2.77;;
22435;SDS011;11385;50.822;4.324;2023-03-24T05:13:56;14.80;;;3.40;;
22435;SDS011;11385;50.822;4.324;2023-03-24T05:16:23;11.78;;;3.33;;
22435;SDS011;11385;50.822;4.324;2023-03-24T05:18:50;9.20;;;2.70;;
22435;SDS011;11385;50.822;4.324;2023-03-24T05:21:17;15.40;;;3.35;;
22435;SDS011;11385;50.822;4.324;2023-03-24T05:23:45;12.05;;;2.72;;
22435;SDS011;11385;50.822;4.324;2023-03-24T05:26:11;14.15;;;2.83;;
22435;SDS011;11385;50.822;4.324;2023-03-24T05:28:38;11.57;;;2.35;;
22435;SDS011;11385;50.822;4.324;2023-03-24T05:31:05;11.12;;;2.80;;
22435;SDS011;11385;50.822;4.324;2023-03-24T05:33:32;12.00;;;2.40;;
22435;SDS011;11385;50.822;4.324;2023-03-24T05:35:59;14.65;;;3.15;;
22435;SDS011;11385;50.822;4.324;2023-03-24T05:38:26;13.53;;;2.22;;
22435;SDS011;11385;50.822;4.324;2023-03-24T05:40:56;16.60;;;3.30;;
22435;SDS011;11385;50.822;4.324;2023-03-24T05:43:24;13.75;;;3.17;;
22435;SDS011;11385;50.822;4.324;2023-03-24T05:45:52;14.03;;;2.95;;
22435;SDS011;11385;50.822;4.324;2023-03-24T05:48:21;11.68;;;2.77;;
22435;SDS011;11385;50.822;4.324;2023-03-24T05:50:47;16.42;;;2.70;;
22435;SDS011;11385;50.822;4.324;2023-03-24T05:53:14;15.53;;;2.70;;
22435;SDS011;11385;50.822;4.324;2023-03-24T05:55:41;13.13;;;2.47;;
22435;SDS011;11385;50.822;4.324;2023-03-24T05:58:08;11.53;;;3.40;;
22435;SDS011;11385;50.822;4.324;2023-03-24T06:00:34;15.13;;;2.90;;
22435;SDS011;11385;50.822;4.324;2023-03-24T06:03:01;13.62;;;3.25;;
22435;SDS011;11385;50.822;4.324;2023-03-24T06:05:28;14.83;;;3.08;;
22435;SDS011;11385;50.822;4.324;2023-03-24T06:07:55;14.83;;;2.80;;
22435;SDS011;11385;50.822;4.324;2023-03-24T06:10:24;14.85;;;2.75;;
22435;SDS011;11385;50.822;4.324;2023-03-24T06:12:53;12.98;;;2.65;;
22435;SDS011;11385;50.822;4.324;2023-03-24T06:15:21;17.62;;;3.62;;
22435;SDS011;11385;50.822;4.324;2023-03-24T06:17:50;13.25;;;3.33;;
22435;SDS011;11385;50.822;4.324;2023-03-24T06:20:19;12.50;;;2.50;;
22435;SDS011;11385;50.822;4.324;2023-03-24T06:22:47;14.20;;;2.52;;
22435;SDS011;11385;50.822;4.324;2023-03-24T06:25:14;17.42;;;2.92;;
22435;SDS011;11385;50.822;4.324;2023-03-24T06:27:44;12.68;;;2.45;;
22435;SDS011;11385;50.822;4.324;2023-03-24T06:30:12;10.25;;;2.30;;
22435;SDS011;11385;50.822;4.324;2023-03-24T06:32:41;15.68;;;2.62;;
22435;SDS011;11385;50.822;4.324;2023-03-24T06:35:10;12.95;;;2.55;;
22435;SDS011;11385;50.822;4.324;2023-03-24T06:37:38;11.38;;;3.30;;
22435;SDS011;11385;50.822;4.324;2023-03-24T06:40:06;16.35;;;3.12;;
22435;SDS011;11385;50.822;4.324;2023-03-24T06:42:35;12.37;;;2.35;;
22435;SDS011;11385;50.822;4.324;2023-03-24T06:45:02;10.45;;;2.10;;
22435;SDS011;11385;50.822;4.324;2023-03-24T06:47:30;16.60;;;2.60;;
22435;SDS011;11385;50.822;4.324;2023-03-24T06:49:57;10.72;;;2.83;;
22435;SDS011;11385;50.822;4.324;2023-03-24T06:52:23;15.23;;;2.67;;
22435;SDS011;11385;50.822;4.324;2023-03-24T06:54:52;12.68;;;2.50;;
22435;SDS011;11385;50.822;4.324;2023-03-24T06:57:19;9.55;;;2.27;;
22435;SDS011;11385;50.822;4.324;2023-03-24T06:59:46;17.05;;;4.17;;
22435;SDS011;11385;50.822;4.324;2023-03-24T07:02:13;14.40;;;2.95;;
22435;SDS011;11385;50.822;4.324;2023-03-24T07:04:40;12.03;;;2.65;;
22435;SDS011;11385;50.822;4.324;2023-03-24T07:07:07;13.28;;;2.77;;
22435;SDS011;11385;50.822;4.324;2023-03-24T07:09:33;12.25;;;3.30;;
22435;SDS011;11385;50.822;4.324;2023-03-24T07:12:00;11.60;;;2.92;;
22435;SDS011;11385;50.822;4.324;2023-03-24T07:14:28;12.05;;;2.98;;
22435;SDS011;11385;50.822;4.324;2023-03-24T07:16:54;17.35;;;3.25;;
22435;SDS011;11385;50.822;4.324;2023-03-24T07:19:21;16.07;;;3.05;;
22435;SDS011;11385;50.822;4.324;2023-03-24T07:21:49;12.53;;;2.65;;
22435;SDS011;11385;50.822;4.324;2023-03-24T07:24:16;11.70;;;2.12;;
22435;SDS011;11385;50.822;4.324;2023-03-24T07:26:44;11.60;;;3.08;;
22435;SDS011;11385;50.822;4.324;2023-03-24T07:29:11;17.32;;;3.22;;
22435;SDS011;11385;50.822;4.324;2023-03-24T07:31:38;13.58;;;3.52;;
22435;SDS011;11385;50.822;4.324;2023-03-24T07:34:05;9.45;;;2.52;;
22435;SDS011;11385;50.822;4.324;2023-03-24T07:36:33;12.10;;;3.10;;
22435;SDS011;11385;50.822;4.324;2023-03-24T07:39:01;16.05;;;3.90;;
22435;SDS011;11385;50.822;4.324;2023-03-24T07:41:29;11.60;;;2.77;;
22435;SDS011;11385;50.822;4.324;2023-03-24T07:43:57;8.08;;;2.10;;
22435;SDS011;11385;50.822;4.324;2023-03-24T07:46:23;14.33;;;3.12;;
22435;SDS011;11385;50.822;4.324;2023-03-24T07:48:50;12.98;;;2.33;;
22435;SDS011;11385;50.822;4.324;2023-03-24T07:51:17;9.93;;;2.92;;
22435;SDS011;11385;50.822;4.324;2023-03-24T07:53:44;14.38;;;3.45;;
22435;SDS011;11385;50.822;4.324;2023-03-24T07:56:13;10.88;;;2.60;;
22435;SDS011;11385;50.822;4.324;2023-03-24T07:58:40;8.75;;;2.33;;
22435;SDS011;11385;50.822;4.324;2023-03-24T08:01:07;13.32;;;2.80;;
22435;SDS011;11385;50.822;4.324;2023-03-24T08:03:36;17.70;;;3.25;;
22435;SDS011;11385;50.822;4.324;2023-03-24T08:06:05;12.88;;;2.70;;
22435;SDS011;11385;50.822;4.324;2023-03-24T08:08:34;16.10;;;2.90;;
22435;SDS011;11385;50.822;4.324;2023-03-24T08:11:02;11.38;;;2.80;;
22435;SDS011;11385;50.822;4.324;2023-03-24T08:13:30;11.15;;;2.80;;
22435;SDS011;11385;50.822;4.324;2023-03-24T08:15:56;11.03;;;2.80;;
22435;SDS011;11385;50.822;4.324;2023-03-24T08:18:25;12.75;;;2.85;;
22435;SDS011;11385;50.822;4.324;2023-03-24T08:20:55;11.03;;;2.67;;
22435;SDS011;11385;50.822;4.324;2023-03-24T08:23:23;7.90;;;1.65;;
22435;SDS011;11385;50.822;4.324;2023-03-24T08:25:51;11.25;;;2.20;;
22435;SDS011;11385;50.822;4.324;2023-03-24T08:28:17;11.43;;;2.65;;
22435;SDS011;11385;50.822;4.324;2023-03-24T08:30:44;14.53;;;3.10;;
22435;SDS011;11385;50.822;4.324;2023-03-24T08:33:12;13.25;;;2.87;;
22435;SDS011;11385;50.822;4.324;2023-03-24T08:35:40;9.10;;;2.20;;
22435;SDS011;11385;50.822;4.324;2023-03-24T08:38:09;11.50;;;2.42;;
22435;SDS011;11385;50.822;4.324;2023-03-24T08:40:37;10.40;;;2.08;;
22435;SDS011;11385;50.822;4.324;2023-03-24T08:43:06;8.28;;;2.10;;
22435;SDS011;11385;50.822;4.324;2023-03-24T08:45:35;13.22;;;2.17;;
22435;SDS011;11385;50.822;4.324;2023-03-24T08:48:03;10.05;;;2.20;;
22435;SDS011;11385;50.822;4.324;2023-03-24T08:50:32;12.85;;;2.27;;
22435;SDS011;11385;50.822;4.324;2023-03-24T08:53:01;10.63;;;2.40;;
22435;SDS011;11385;50.822;4.324;2023-03-24T08:55:29;8.75;;;2.50;;
22435;SDS011;11385;50.822;4.324;2023-03-24T08:57:55;12.20;;;2.65;;
22435;SDS011;11385;50.822;4.324;2023-03-24T09:00:22;10.23;;;2.52;;
22435;SDS011;11385;50.822;4.324;2023-03-24T09:02:51;13.50;;;2.55;;
22435;SDS011;11385;50.822;4.324;2023-03-24T09:05:19;12.40;;;2.50;;
22435;SDS011;11385;50.822;4.324;2023-03-24T09:07:47;14.43;;;2.33;;
22435;SDS011;11385;50.822;4.324;2023-03-24T09:10:16;12.95;;;2.58;;
22435;SDS011;11385;50.822;4.324;2023-03-24T09:12:43;11.40;;;2.87;;
22435;SDS011;11385;50.822;4.324;2023-03-24T09:15:12;13.70;;;2.52;;
22435;SDS011;11385;50.822;4.324;2023-03-24T09:17:39;10.55;;;3.83;;
22435;SDS011;11385;50.822;4.324;2023-03-24T09:20:07;7.28;;;2.65;;
22435;SDS011;11385;50.822;4.324;2023-03-24T09:22:38;12.80;;;2.70;;
22435;SDS011;11385;50.822;4.324;2023-03-24T09:25:06;11.57;;;2.65;;
22435;SDS011;11385;50.822;4.324;2023-03-24T09:27:33;14.38;;;3.05;;
22435;SDS011;11385;50.822;4.324;2023-03-24T09:30:00;12.33;;;3.52;;
22435;SDS011;11385;50.822;4.324;2023-03-24T09:32:27;9.88;;;3.02;;
22435;SDS011;11385;50.822;4.324;2023-03-24T09:34:54;10.98;;;2.42;;
22435;SDS011;11385;50.822;4.324;2023-03-24T09:37:21;13.08;;;3.08;;
22435;SDS011;11385;50.822;4.324;2023-03-24T09:39:47;13.65;;;2.08;;
22435;SDS011;11385;50.822;4.324;2023-03-24T09:42:17;21.20;;;2.90;;
22435;SDS011;11385;50.822;4.324;2023-03-24T09:44:50;8.13;;;2.02;;
22435;SDS011;11385;50.822;4.324;2023-03-24T09:50:16;9.60;;;1.98;;
22435;SDS011;11385;50.822;4.324;2023-03-24T09:52:47;12.30;;;2.35;;
22435;SDS011;11385;50.822;4.324;2023-03-24T09:55:17;11.48;;;2.15;;
22435;SDS011;11385;50.822;4.324;2023-03-24T09:57:47;14.60;;;2.50;;
22435;SDS011;11385;50.822;4.324;2023-03-24T10:00:19;11.20;;;1.70;;
22435;SDS011;11385;50.822;4.324;2023-03-24T10:02:48;12.18;;;2.20;;
22435;SDS011;11385;50.822;4.324;2023-03-24T10:05:26;12.65;;;2.17;;
22435;SDS011;11385;50.822;4.324;2023-03-24T10:08:09;8.63;;;2.45;;
22435;SDS011;11385;50.822;4.324;2023-03-24T10:10:47;8.13;;;1.92;;
22435;SDS011;11385;50.822;4.324;2023-03-24T10:13:29;13.78;;;2.83;;
22435;SDS011;11385;50.822;4.324;2023-03-24T10:16:03;13.22;;;2.60;;
22435;SDS011;11385;50.822;4.324;2023-03-24T10:18:35;12.50;;;3.10;;
22435;SDS011;11385;50.822;4.324;2023-03-24T10:21:20;12.37;;;2.40;;
22435;SDS011;11385;50.822;4.324;2023-03-24T10:23:54;8.23;;;1.90;;
22435;SDS011;11385;50.822;4.324;2023-03-24T10:26:46;16.90;;;1.98;;
22435;SDS011;11385;50.822;4.324;2023-03-24T10:31:51;9.58;;;2.00;;
22435;SDS011;11385;50.822;4.324;2023-03-24T10:34:28;11.55;;;2.08;;
22435;SDS011;11385;50.822;4.324;2023-03-24T10:36:58;6.72;;;2.02;;
22435;SDS011;11385;50.822;4.324;2023-03-24T10:39:28;8.18;;;2.08;;
22435;SDS011;11385;50.822;4.324;2023-03-24T10:41:56;14.65;;;2.42;;
22435;SDS011;11385;50.822;4.324;2023-03-24T10:44:25;9.93;;;2.72;;
22435;SDS011;11385;50.822;4.324;2023-03-24T10:46:54;11.63;;;2.85;;
22435;SDS011;11385;50.822;4.324;2023-03-24T10:49:22;10.85;;;2.22;;
22435;SDS011;11385;50.822;4.324;2023-03-24T10:51:52;9.48;;;2.62;;
22435;SDS011;11385;50.822;4.324;2023-03-24T10:54:25;14.60;;;3.92;;
22435;SDS011;11385;50.822;4.324;2023-03-24T10:57:03;11.30;;;2.12;;
22435;SDS011;11385;50.822;4.324;2023-03-24T10:59:38;11.80;;;2.50;;
22435;SDS011;11385;50.822;4.324;2023-03-24T11:02:15;14.75;;;2.40;;
22435;SDS011;11385;50.822;4.324;2023-03-24T11:04:53;10.53;;;2.22;;
22435;SDS011;11385;50.822;4.324;2023-03-24T11:07:56;12.60;;;2.58;;
22435;SDS011;11385;50.822;4.324;2023-03-24T11:10:13;10.70;;;2.12;;
22435;SDS011;11385;50.822;4.324;2023-03-24T11:15:29;9.35;;;2.00;;
22435;SDS011;11385;50.822;4.324;2023-03-24T11:17:58;9.75;;;1.80;;
22435;SDS011;11385;50.822;4.324;2023-03-24T11:20:43;10.63;;;2.15;;
22435;SDS011;11385;50.822;4.324;2023-03-24T11:23:17;6.75;;;2.12;;
22435;SDS011;11385;50.822;4.324;2023-03-24T11:25:49;8.45;;;1.90;;
22435;SDS011;11385;50.822;4.324;2023-03-24T11:28:23;12.03;;;2.45;;
22435;SDS011;11385;50.822;4.324;2023-03-24T11:30:52;11.12;;;2.10;;
22435;SDS011;11385;50.822;4.324;2023-03-24T11:33:22;11.70;;;2.33;;
22435;SDS011;11385;50.822;4.324;2023-03-24T11:35:59;10.10;;;1.80;;
22435;SDS011;11385;50.822;4.324;2023-03-24T11:38:29;9.93;;;1.80;;
22435;SDS011;11385;50.822;4.324;2023-03-24T11:40:58;14.87;;;2.65;;
22435;SDS011;11385;50.822;4.324;2023-03-24T11:43:28;9.38;;;2.08;;
22435;SDS011;11385;50.822;4.324;2023-03-24T11:45:59;12.90;;;2.47;;
22435;SDS011;11385;50.822;4.324;2023-03-24T11:49:00;12.28;;;2.75;;
22435;SDS011;11385;50.822;4.324;2023-03-24T11:51:33;12.75;;;2.52;;
22435;SDS011;11385;50.822;4.324;2023-03-24T11:54:02;11.93;;;2.70;;
22435;SDS011;11385;50.822;4.324;2023-03-24T11:56:40;12.03;;;2.15;;
22435;SDS011;11385;50.822;4.324;2023-03-24T12:05:10;10.13;;;2.58;;
22435;SDS011;11385;50.822;4.324;2023-03-24T12:08:01;11.60;;;2.80;;
22435;SDS011;11385;50.822;4.324;2023-03-24T12:10:48;9.98;;;2.42;;
22435;SDS011;11385;50.822;4.324;2023-03-24T12:13:31;10.82;;;2.40;;
22435;SDS011;11385;50.822;4.324;2023-03-24T12:16:13;9.70;;;2.17;;
22435;SDS011;11385;50.822;4.324;2023-03-24T12:18:42;9.30;;;2.42;;
22435;SDS011;11385;50.822;4.324;2023-03-24T12:21:22;10.53;;;2.00;;
22435;SDS011;11385;50.822;4.324;2023-03-24T12:23:56;12.90;;;2.33;;
22435;SDS011;11385;50.822;4.324;2023-03-24T12:26:26;10.35;;;1.92;;
22435;SDS011;11385;50.822;4.324;2023-03-24T12:28:57;7.97;;;1.98;;
22435;SDS011;11385;50.822;4.324;2023-03-24T12:35:03;8.98;;;2.33;;
22435;SDS011;11385;50.822;4.324;2023-03-24T12:40:26;9.18;;;2.77;;
22435;SDS011;11385;50.822;4.324;2023-03-24T12:42:54;11.70;;;1.62;;
22435;SDS011;11385;50.822;4.324;2023-03-24T12:45:28;9.68;;;1.87;;
22435;SDS011;11385;50.822;4.324;2023-03-24T12:48:10;6.78;;;1.12;;
22435;SDS011;11385;50.822;4.324;2023-03-24T12:50:44;5.75;;;1.72;;
22435;SDS011;11385;50.822;4.324;2023-03-24T12:56:08;9.00;;;1.55;;
22435;SDS011;11385;50.822;4.324;2023-03-24T12:58:42;8.88;;;2.02;;
22435;SDS011;11385;50.822;4.324;2023-03-24T13:01:15;6.70;;;1.52;;
22435;SDS011;11385;50.822;4.324;2023-03-24T13:04:06;8.80;;;1.60;;
22435;SDS011;11385;50.822;4.324;2023-03-24T13:06:48;10.18;;;2.15;;
22435;SDS011;11385;50.822;4.324;2023-03-24T13:09:56;5.83;;;1.20;;
22435;SDS011;11385;50.822;4.324;2023-03-24T13:12:36;5.25;;;0.95;;
22435;SDS011;11385;50.822;4.324;2023-03-24T13:18:29;8.90;;;1.67;;
22435;SDS011;11385;50.822;4.324;2023-03-24T13:20:44;9.25;;;1.87;;
22435;SDS011;11385;50.822;4.324;2023-03-24T13:23:24;6.03;;;1.47;;
22435;SDS011;11385;50.822;4.324;2023-03-24T13:26:07;7.85;;;1.35;;
22435;SDS011;11385;50.822;4.324;2023-03-24T13:28:48;6.80;;;1.62;;
22435;SDS011;11385;50.822;4.324;2023-03-24T13:31:18;7.25;;;1.55;;
22435;SDS011;11385;50.822;4.324;2023-03-24T13:33:47;7.03;;;1.37;;
22435;SDS011;11385;50.822;4.324;2023-03-24T13:39:03;9.25;;;1.37;;
22435;SDS011;11385;50.822;4.324;2023-03-24T13:41:35;8.93;;;1.47;;
22435;SDS011;11385;50.822;4.324;2023-03-24T13:44:08;6.15;;;1.30;;
22435;SDS011;11385;50.822;4.324;2023-03-24T13:49:30;9.20;;;1.80;;
22435;SDS011;11385;50.822;4.324;2023-03-24T13:52:00;8.98;;;1.95;;
22435;SDS011;11385;50.822;4.324;2023-03-24T13:54:28;7.35;;;1.72;;
22435;SDS011;11385;50.822;4.324;2023-03-24T13:57:02;9.50;;;1.85;;
22435;SDS011;11385;50.822;4.324;2023-03-24T14:02:16;6.30;;;1.72;;
22435;SDS011;11385;50.822;4.324;2023-03-24T14:05:00;5.67;;;1.90;;
22435;SDS011;11385;50.822;4.324;2023-03-24T14:07:42;8.15;;;1.40;;
22435;SDS011;11385;50.822;4.324;2023-03-24T14:10:26;7.37;;;1.50;;
22435;SDS011;11385;50.822;4.324;2023-03-24T14:13:00;5.90;;;1.52;;
22435;SDS011;11385;50.822;4.324;2023-03-24T14:15:30;10.90;;;1.90;;
22435;SDS011;11385;50.822;4.324;2023-03-24T14:26:07;9.55;;;2.05;;
22435;SDS011;11385;50.822;4.324;2023-03-24T14:28:40;7.97;;;1.85;;
22435;SDS011;11385;50.822;4.324;2023-03-24T14:31:17;10.03;;;2.33;;
22435;SDS011;11385;50.822;4.324;2023-03-24T14:33:59;10.45;;;2.20;;
22435;SDS011;11385;50.822;4.324;2023-03-24T14:36:31;7.87;;;1.80;;
22435;SDS011;11385;50.822;4.324;2023-03-24T14:39:06;10.53;;;4.10;;
22435;SDS011;11385;50.822;4.324;2023-03-24T14:41:52;8.08;;;1.80;;
22435;SDS011;11385;50.822;4.324;2023-03-24T14:46:58;3.85;;;1.00;;
22435;SDS011;11385;50.822;4.324;2023-03-24T14:49:27;4.00;;;0.82;;
22435;SDS011;11385;50.822;4.324;2023-03-24T14:51:56;4.55;;;1.40;;
22435;SDS011;11385;50.822;4.324;2023-03-24T14:54:33;7.65;;;1.42;;
22435;SDS011;11385;50.822;4.324;2023-03-24T14:57:04;5.42;;;1.10;;
22435;SDS011;11385;50.822;4.324;2023-03-24T14:59:46;6.80;;;1.50;;
22435;SDS011;11385;50.822;4.324;2023-03-24T15:02:40;7.70;;;1.47;;
22435;SDS011;11385;50.822;4.324;2023-03-24T15:05:15;6.65;;;1.75;;
22435;SDS011;11385;50.822;4.324;2023-03-24T15:07:51;5.85;;;1.12;;
22435;SDS011;11385;50.822;4.324;2023-03-24T15:13:17;4.83;;;1.10;;
22435;SDS011;11385;50.822;4.324;2023-03-24T15:15:45;6.17;;;1.05;;
22435;SDS011;11385;50.822;4.324;2023-03-24T15:18:16;4.15;;;1.15;;
22435;SDS011;11385;50.822;4.324;2023-03-24T15:20:44;2.87;;;0.82;;
22435;SDS011;11385;50.822;4.324;2023-03-24T15:23:16;4.12;;;0.82;;
22435;SDS011;11385;50.822;4.324;2023-03-24T15:25:46;8.30;;;1.17;;
22435;SDS011;11385;50.822;4.324;2023-03-24T15:28:18;4.22;;;1.10;;
22435;SDS011;11385;50.822;4.324;2023-03-24T15:30:50;6.22;;;1.27;;
22435;SDS011;11385;50.822;4.324;2023-03-24T15:33:24;5.80;;;1.52;;
22435;SDS011;11385;50.822;4.324;2023-03-24T15:35:55;5.53;;;1.40;;
22435;SDS011;11385;50.822;4.324;2023-03-24T15:38:27;5.33;;;0.90;;
22435;SDS011;11385;50.822;4.324;2023-03-24T15:43:40;3.05;;;0.98;;
22435;SDS011;11385;50.822;4.324;2023-03-24T15:46:17;7.58;;;1.65;;
22435;SDS011;11385;50.822;4.324;2023-03-24T15:48:45;5.45;;;1.22;;
22435;SDS011;11385;50.822;4.324;2023-03-24T15:51:12;4.15;;;1.12;;
22435;SDS011;11385;50.822;4.324;2023-03-24T15:53:41;6.17;;;1.35;;
22435;SDS011;11385;50.822;4.324;2023-03-24T15:56:15;7.10;;;1.20;;
22435;SDS011;11385;50.822;4.324;2023-03-24T15:58:48;9.03;;;1.40;;
22435;SDS011;11385;50.822;4.324;2023-03-24T16:01:16;7.92;;;1.80;;
22435;SDS011;11385;50.822;4.324;2023-03-24T16:03:46;12.00;;;4.53;;
22435;SDS011;11385;50.822;4.324;2023-03-24T16:06:14;12.10;;;4.65;;
22435;SDS011;11385;50.822;4.324;2023-03-24T16:08:43;6.65;;;2.20;;
22435;SDS011;11385;50.822;4.324;2023-03-24T16:11:13;6.10;;;1.40;;
22435;SDS011;11385;50.822;4.324;2023-03-24T16:13:42;7.28;;;1.80;;